Time;durP1;ratioP1;P1;durP2;ratioP2;P2;SDS_P1;SDS_P2;PMS_P1;PMS_P2;Temp;Humidity;BMP_temperature;BMP_pressure;BME280_temperature;BME280_humidity;BME280_pressure;Samples;Min_cycle;Max_cycle;Signal;HPM_P1;HPM_P2
2023/02/03 00:01:38;;;;;;;4.03;3.30;;;5.40;99.90;;;;;;5018629;28;20200;-58
2023/02/03 00:04:05;;;;;;;5.37;3.13;;;5.40;99.90;;;;;;5003849;28;20204;-47
2023/02/03 00:06:33;;;;;;;4.93;3.73;;;5.50;99.90;;;;;;5019727;28;20203;-54
2023/02/03 00:09:00;;;;;;;4.57;3.80;;;5.60;99.90;;;;;;5010445;28;20196;-51
2023/02/03 00:11:29;;;;;;;4.33;3.60;;;5.60;99.90;;;;;;5019638;28;20275;-46
2023/02/03 00:13:56;;;;;;;6.53;3.93;;;5.70;99.90;;;;;;4994256;28;20311;-51
2023/02/03 00:16:23;;;;;;;4.63;4.10;;;5.80;99.90;;;;;;5019426;28;20215;-48
2023/02/03 00:18:50;;;;;;;6.17;4.47;;;5.80;99.90;;;;;;5005126;28;20208;-59
2023/02/03 00:21:17;;;;;;;5.30;4.77;;;5.80;99.90;;;;;;5016250;28;20573;-48
2023/02/03 00:23:45;;;;;;;5.73;4.53;;;5.80;99.90;;;;;;5016937;28;20211;-55
2023/02/03 00:26:14;;;;;;;5.30;4.50;;;5.80;99.90;;;;;;5035162;28;20207;-48
2023/02/03 00:28:42;;;;;;;5.27;4.63;;;5.90;99.90;;;;;;5007063;28;20879;-57
2023/02/03 00:31:16;;;;;;;7.60;5.37;;;5.90;99.90;;;;;;5010924;28;20287;-48
2023/02/03 00:34:05;;;;;;;7.33;5.63;;;6.00;99.90;;;;;;5006293;28;20222;-49
2023/02/03 00:36:32;;;;;;;6.03;4.90;;;6.10;99.90;;;;;;5011229;28;20211;-51
2023/02/03 00:39:01;;;;;;;6.27;5.17;;;6.10;99.90;;;;;;5015522;28;20189;-47
2023/02/03 00:41:30;;;;;;;6.33;5.50;;;6.20;99.90;;;;;;5018137;28;20211;-46
2023/02/03 00:43:57;;;;;;;7.00;6.10;;;6.20;99.90;;;;;;4999182;28;20287;-51
2023/02/03 00:46:24;;;;;;;7.27;5.30;;;6.30;99.90;;;;;;5014675;28;20621;-48
2023/02/03 00:49:12;;;;;;;6.00;5.33;;;6.30;99.90;;;;;;5006418;28;20940;-49
2023/02/03 00:51:39;;;;;;;8.57;5.97;;;6.40;99.90;;;;;;5015124;28;20208;-57
2023/02/03 00:54:07;;;;;;;8.80;5.93;;;6.50;99.90;;;;;;5036559;28;20227;-46
2023/02/03 00:56:34;;;;;;;8.93;6.33;;;6.60;99.90;;;;;;5022774;28;20714;-50
2023/02/03 00:59:02;;;;;;;10.17;6.07;;;6.70;99.90;;;;;;5005848;27;20982;-49
2023/02/03 01:01:31;;;;;;;9.17;7.20;;;6.80;99.90;;;;;;5016470;28;20196;-49
2023/02/03 01:03:58;;;;;;;10.43;7.07;;;6.80;99.90;;;;;;5005110;27;20327;-49
2023/02/03 01:06:25;;;;;;;10.63;6.67;;;6.90;99.90;;;;;;5012202;27;20940;-47
2023/02/03 01:08:54;;;;;;;10.33;7.27;;;6.90;99.90;;;;;;5017379;28;20204;-56
2023/02/03 01:11:25;;;;;;;12.53;8.17;;;6.90;99.90;;;;;;5047533;27;20204;-48
2023/02/03 01:13:54;;;;;;;15.63;7.57;;;7.00;99.90;;;;;;5007215;27;20280;-58
2023/02/03 01:16:23;;;;;;;10.90;7.17;;;7.10;99.90;;;;;;5012397;27;20699;-47
2023/02/03 01:18:51;;;;;;;18.80;7.67;;;7.10;99.90;;;;;;5018057;28;20679;-58
2023/02/03 01:21:21;;;;;;;12.60;7.97;;;7.20;99.90;;;;;;5008177;27;20679;-48
2023/02/03 01:23:47;;;;;;;13.20;7.37;;;7.20;99.90;;;;;;5019346;28;20870;-56
2023/02/03 01:26:18;;;;;;;8.73;6.47;;;7.30;99.90;;;;;;5020710;28;20848;-51
2023/02/03 01:28:52;;;;;;;12.77;7.73;;;7.30;99.90;;;;;;5014104;27;20257;-58
2023/02/03 01:31:22;;;;;;;17.30;8.23;;;7.40;99.90;;;;;;5021152;28;20202;-50
2023/02/03 01:33:48;;;;;;;16.73;6.83;;;7.40;99.90;;;;;;5009008;28;20216;-58
2023/02/03 01:36:17;;;;;;;14.97;6.77;;;7.40;99.90;;;;;;5008139;27;20323;-46
2023/02/03 01:38:44;;;;;;;11.07;6.27;;;7.40;99.90;;;;;;5018501;28;20675;-57
2023/02/03 01:41:14;;;;;;;11.20;6.17;;;7.40;99.90;;;;;;5022804;27;20192;-50
2023/02/03 01:43:44;;;;;;;13.40;6.03;;;7.40;99.90;;;;;;5019974;28;20195;-55
2023/02/03 01:46:24;;;;;;;10.27;6.33;;;7.40;99.90;;;;;;5022683;27;20415;-54
2023/02/03 01:48:53;;;;;;;11.97;6.37;;;7.50;99.90;;;;;;5011192;28;20203;-58
2023/02/03 01:51:20;;;;;;;10.30;5.73;;;7.50;99.90;;;;;;5014711;28;20231;-50
2023/02/03 01:53:49;;;;;;;15.77;6.00;;;7.50;99.90;;;;;;5010501;28;20761;-56
2023/02/03 01:56:17;;;;;;;12.57;5.90;;;7.50;99.90;;;;;;5021366;28;20536;-46
2023/02/03 01:58:46;;;;;;;12.23;4.93;;;7.50;99.90;;;;;;5018618;28;20556;-56
2023/02/03 02:01:13;;;;;;;15.50;5.80;;;7.50;99.90;;;;;;5009558;27;20199;-49
2023/02/03 02:03:46;;;;;;;11.77;4.80;;;7.50;99.90;;;;;;5018475;28;20287;-57
2023/02/03 02:06:14;;;;;;;13.07;5.13;;;7.50;99.90;;;;;;5036045;27;20316;-51
2023/02/03 02:08:43;;;;;;;8.37;4.47;;;7.60;99.90;;;;;;5010392;28;20219;-56
2023/02/03 02:11:11;;;;;;;14.13;5.43;;;7.60;99.90;;;;;;5019122;28;20212;-50
2023/02/03 02:13:43;;;;;;;9.13;4.77;;;7.60;99.90;;;;;;5019940;28;20212;-56
2023/02/03 02:16:15;;;;;;;12.53;4.73;;;7.60;99.90;;;;;;5018254;27;20974;-47
2023/02/03 02:19:06;;;;;;;9.63;4.07;;;7.60;99.90;;;;;;5027803;27;20202;-57
2023/02/03 02:21:59;;;;;;;7.63;4.20;;;7.60;99.90;;;;;;5010145;28;20224;-47
2023/02/03 02:24:54;;;;;;;11.37;4.47;;;7.60;99.90;;;;;;5014071;28;20227;-47
2023/02/03 02:27:57;;;;;;;8.63;4.00;;;7.60;99.90;;;;;;5016790;28;20559;-51
2023/02/03 02:30:38;;;;;;;9.00;3.93;;;7.60;99.90;;;;;;5020039;28;20256;-50
2023/02/03 02:33:16;;;;;;;11.13;4.00;;;7.60;99.90;;;;;;5021765;27;20751;-50
2023/02/03 02:35:50;;;;;;;5.90;3.83;;;7.60;99.90;;;;;;5009306;28;20220;-58
2023/02/03 02:38:29;;;;;;;6.30;3.70;;;7.60;99.90;;;;;;5019741;28;20219;-47
2023/02/03 02:41:03;;;;;;;5.57;3.47;;;7.60;99.90;;;;;;5007975;28;20295;-48
2023/02/03 02:43:39;;;;;;;6.07;3.43;;;7.60;99.90;;;;;;5014661;28;20192;-54
2023/02/03 02:46:11;;;;;;;4.33;3.03;;;7.60;99.90;;;;;;5016846;28;20215;-49
2023/02/03 02:48:44;;;;;;;10.33;3.50;;;7.60;99.90;;;;;;5034951;27;20257;-59
2023/02/03 02:51:14;;;;;;;7.33;3.33;;;7.60;99.90;;;;;;5009260;28;20224;-50
2023/02/03 02:53:46;;;;;;;5.17;3.10;;;7.60;99.90;;;;;;5015754;28;20255;-56
2023/02/03 02:56:15;;;;;;;4.97;3.40;;;7.60;99.90;;;;;;5011863;28;20407;-49
2023/02/03 02:58:45;;;;;;;11.20;3.57;;;7.60;99.90;;;;;;5017951;28;20204;-58
2023/02/03 03:01:13;;;;;;;8.73;3.43;;;7.70;99.90;;;;;;5019101;28;20249;-47
2023/02/03 03:03:44;;;;;;;11.70;3.80;;;7.60;99.90;;;;;;5014818;27;20265;-56
2023/02/03 03:06:15;;;;;;;10.33;3.23;;;7.60;99.90;;;;;;5018443;28;20386;-52
2023/02/03 03:08:46;;;;;;;8.73;3.00;;;7.70;99.90;;;;;;5010844;28;20202;-57
2023/02/03 03:11:14;;;;;;;7.50;2.90;;;7.70;99.90;;;;;;5010804;28;20291;-46
2023/02/03 03:13:44;;;;;;;4.50;2.60;;;7.70;99.90;;;;;;5017850;28;20242;-56
2023/02/03 03:16:14;;;;;;;10.13;2.73;;;7.70;99.90;;;;;;5009262;28;20295;-51
2023/02/03 03:18:46;;;;;;;5.17;2.27;;;7.70;99.90;;;;;;4998644;27;20289;-50
2023/02/03 03:21:19;;;;;;;3.17;2.27;;;7.80;99.90;;;;;;5036632;27;20203;-57
2023/02/03 03:23:49;;;;;;;9.67;2.93;;;7.80;99.90;;;;;;5011808;28;20215;-46
2023/02/03 03:26:23;;;;;;;10.73;2.47;;;7.80;99.90;;;;;;5010601;28;20204;-58
2023/02/03 03:28:54;;;;;;;7.83;2.33;;;7.80;99.90;;;;;;5018710;28;20209;-49
2023/02/03 03:31:21;;;;;;;8.37;2.50;;;7.80;99.90;;;;;;5018401;28;20196;-58
2023/02/03 03:33:49;;;;;;;9.60;2.03;;;7.80;99.90;;;;;;5006495;27;20619;-49
2023/02/03 03:36:24;;;;;;;5.17;2.00;;;7.80;99.90;;;;;;5019407;28;20200;-58
2023/02/03 03:38:58;;;;;;;6.13;2.17;;;7.80;99.90;;;;;;5013337;28;20570;-51
2023/02/03 03:41:32;;;;;;;11.10;3.03;;;7.80;99.90;;;;;;5012434;28;20307;-58
2023/02/03 03:44:03;;;;;;;6.73;2.23;;;7.80;99.90;;;;;;5012215;28;20204;-46
2023/02/03 03:46:39;;;;;;;9.67;2.67;;;7.80;99.90;;;;;;5010358;28;20207;-59
2023/02/03 03:49:12;;;;;;;7.40;2.13;;;7.80;99.90;;;;;;5020237;28;20211;-47
2023/02/03 03:51:44;;;;;;;7.67;2.67;;;7.80;99.90;;;;;;5014392;28;20202;-46
2023/02/03 03:54:13;;;;;;;5.97;2.03;;;7.80;99.90;;;;;;5010617;28;20300;-49
2023/02/03 03:56:46;;;;;;;7.87;2.13;;;7.80;99.90;;;;;;5002903;28;20219;-48
2023/02/03 03:59:16;;;;;;;8.07;2.00;;;7.80;99.90;;;;;;5019851;28;20193;-56
2023/02/03 04:01:44;;;;;;;7.70;1.93;;;7.80;99.90;;;;;;5010175;28;20233;-47
2023/02/03 04:04:15;;;;;;;11.47;2.50;;;7.80;99.90;;;;;;5019760;28;20220;-48
2023/02/03 04:06:42;;;;;;;5.57;1.87;;;7.80;99.90;;;;;;5007406;28;20205;-51
2023/02/03 04:09:09;;;;;;;8.43;2.20;;;7.80;99.90;;;;;;5019612;28;20215;-47
2023/02/03 04:14:36;;;;;;;8.60;2.53;;;7.80;99.90;;;;;;5068397;28;20286;-49
2023/02/03 04:17:03;;;;;;;7.47;2.50;;;7.80;99.90;;;;;;5028106;28;20326;-50
2023/02/03 04:19:31;;;;;;;5.90;2.00;;;7.70;99.90;;;;;;5016137;28;20208;-55
2023/02/03 04:21:58;;;;;;;7.90;2.53;;;7.70;99.90;;;;;;5006903;28;20211;-51
2023/02/03 04:24:25;;;;;;;6.87;2.20;;;7.70;99.90;;;;;;5009003;28;20264;-58
2023/02/03 04:26:52;;;;;;;6.67;2.20;;;7.70;99.90;;;;;;5007815;27;20212;-50
2023/02/03 04:29:19;;;;;;;6.87;2.70;;;7.60;99.90;;;;;;5021581;28;20211;-57
2023/02/03 04:31:45;;;;;;;9.80;2.90;;;7.70;99.90;;;;;;5020755;28;20207;-47
2023/02/03 04:34:12;;;;;;;6.27;2.60;;;7.70;99.90;;;;;;5018946;27;20224;-57
2023/02/03 04:36:40;;;;;;;4.70;2.40;;;7.70;99.90;;;;;;5009991;27;20928;-48
2023/02/03 04:39:07;;;;;;;6.57;2.70;;;7.60;99.90;;;;;;5012207;28;20204;-50
2023/02/03 04:41:33;;;;;;;6.73;2.70;;;7.70;99.90;;;;;;5006493;28;20208;-46
2023/02/03 04:44:00;;;;;;;7.63;3.17;;;7.70;99.90;;;;;;5010298;27;20242;-46
2023/02/03 04:46:27;;;;;;;7.40;2.33;;;7.70;99.90;;;;;;5019708;28;20207;-57
2023/02/03 04:48:54;;;;;;;7.93;2.80;;;7.70;99.90;;;;;;5022605;28;20200;-48
2023/02/03 04:51:21;;;;;;;5.13;2.77;;;7.70;99.90;;;;;;5020952;28;20281;-58
2023/02/03 04:53:49;;;;;;;5.17;2.37;;;7.70;99.90;;;;;;5011076;27;20303;-47
2023/02/03 04:56:16;;;;;;;7.87;2.97;;;7.70;99.90;;;;;;5007068;28;20200;-55
2023/02/03 04:58:43;;;;;;;8.87;3.07;;;7.70;99.90;;;;;;5012404;28;20204;-54
2023/02/03 05:01:10;;;;;;;7.27;2.80;;;7.70;99.90;;;;;;5022493;28;20679;-51
2023/02/03 05:03:38;;;;;;;4.47;3.10;;;7.60;99.90;;;;;;5018390;28;20199;-51
2023/02/03 05:06:05;;;;;;;9.83;3.03;;;7.70;99.90;;;;;;5021263;28;20280;-47
2023/02/03 05:08:32;;;;;;;4.80;2.73;;;7.70;99.90;;;;;;5008063;28;20287;-49
2023/02/03 05:11:00;;;;;;;4.87;2.90;;;7.70;99.90;;;;;;5005289;28;20208;-46
2023/02/03 05:13:27;;;;;;;5.67;3.70;;;7.60;99.90;;;;;;5006125;28;20265;-58
2023/02/03 05:15:54;;;;;;;7.67;2.83;;;7.60;99.90;;;;;;5014856;28;20231;-49
2023/02/03 05:18:20;;;;;;;5.07;2.93;;;7.60;99.90;;;;;;5017521;28;20200;-56
2023/02/03 05:20:47;;;;;;;4.27;3.27;;;7.60;99.90;;;;;;5016763;28;20200;-46
2023/02/03 05:23:14;;;;;;;9.00;3.00;;;7.60;99.90;;;;;;5018299;27;20212;-54
2023/02/03 05:25:43;;;;;;;5.97;3.30;;;7.60;99.90;;;;;;5005790;27;20217;-49
2023/02/03 05:28:11;;;;;;;3.93;2.70;;;7.60;99.90;;;;;;5014636;28;20212;-49
2023/02/03 05:30:38;;;;;;;3.37;2.80;;;7.60;99.90;;;;;;5011294;28;20232;-47
2023/02/03 05:33:05;;;;;;;4.63;2.70;;;7.60;99.90;;;;;;5010582;28;20208;-48
2023/02/03 05:35:32;;;;;;;4.50;3.23;;;7.60;99.90;;;;;;5015888;28;20230;-46
2023/02/03 05:37:59;;;;;;;5.20;3.13;;;7.60;99.90;;;;;;5017287;28;20690;-49
2023/02/03 05:43:34;;;;;;;5.27;2.90;;;7.60;99.90;;;;;;5002482;27;20252;-48
2023/02/03 05:46:01;;;;;;;8.00;2.87;;;7.60;99.90;;;;;;5000219;27;20228;-51
2023/02/03 05:48:27;;;;;;;3.33;2.57;;;7.60;99.90;;;;;;5009176;28;20260;-55
2023/02/03 05:50:55;;;;;;;5.00;2.60;;;7.70;99.90;;;;;;5018304;28;20196;-47
2023/02/03 05:53:22;;;;;;;6.30;3.63;;;7.70;99.90;;;;;;5012953;28;20196;-55
2023/02/03 05:55:49;;;;;;;12.20;3.20;;;7.60;99.90;;;;;;5015092;27;20790;-47
2023/02/03 05:58:16;;;;;;;5.27;2.47;;;7.60;99.90;;;;;;5012970;28;20211;-56
2023/02/03 06:00:44;;;;;;;7.07;2.37;;;7.70;99.90;;;;;;4997950;28;20204;-47
2023/02/03 06:03:11;;;;;;;4.53;2.00;;;7.60;99.90;;;;;;5013768;28;20204;-58
2023/02/03 06:05:39;;;;;;;5.87;2.40;;;7.60;99.90;;;;;;5008382;28;20224;-47
2023/02/03 06:08:07;;;;;;;8.53;2.43;;;7.70;99.90;;;;;;5016585;28;20204;-50
2023/02/03 06:10:34;;;;;;;4.93;2.33;;;7.70;99.90;;;;;;5004538;27;20198;-47
2023/02/03 06:13:09;;;;;;;5.70;2.40;;;7.70;99.90;;;;;;5015867;28;20200;-52
2023/02/03 06:15:36;;;;;;;7.97;2.67;;;7.70;99.90;;;;;;5002969;28;20902;-46
2023/02/03 06:18:05;;;;;;;4.80;2.10;;;7.70;99.90;;;;;;5010850;28;20877;-47
2023/02/03 06:20:31;;;;;;;8.43;2.33;;;7.70;99.90;;;;;;5000816;27;20945;-51
2023/02/03 06:22:59;;;;;;;3.67;2.13;;;7.70;99.90;;;;;;5012185;28;20215;-47
2023/02/03 06:25:26;;;;;;;9.13;2.43;;;7.70;99.90;;;;;;5016830;27;20255;-49
2023/02/03 06:27:53;;;;;;;5.67;1.97;;;7.70;99.90;;;;;;5012974;28;20224;-56
2023/02/03 06:30:22;;;;;;;6.03;2.60;;;7.70;99.90;;;;;;5011483;28;20709;-52
2023/02/03 06:32:49;;;;;;;4.53;2.27;;;7.70;99.90;;;;;;5010231;27;20218;-57
2023/02/03 06:35:18;;;;;;;7.30;2.17;;;7.80;99.90;;;;;;5005052;28;20684;-50
2023/02/03 06:37:45;;;;;;;4.60;2.10;;;7.80;99.90;;;;;;5009348;28;20192;-52
2023/02/03 06:40:12;;;;;;;3.23;1.80;;;7.70;99.90;;;;;;5008305;27;20204;-50
2023/02/03 06:42:39;;;;;;;5.00;2.50;;;7.80;99.90;;;;;;5011536;28;20196;-50
2023/02/03 06:45:28;;;;;;;5.90;1.97;;;7.80;99.90;;;;;;5002404;28;21022;-48
2023/02/03 06:47:55;;;;;;;8.10;2.67;;;7.80;99.90;;;;;;5008264;28;20946;-56
2023/02/03 06:50:23;;;;;;;5.57;2.10;;;7.80;99.90;;;;;;5012738;28;20200;-56
2023/02/03 06:52:50;;;;;;;10.20;2.70;;;7.80;99.90;;;;;;5000803;28;20676;-50
2023/02/03 06:55:17;;;;;;;7.17;2.20;;;7.80;99.90;;;;;;4994289;27;20398;-57
2023/02/03 06:57:47;;;;;;;8.63;3.90;;;7.90;99.90;;;;;;5014524;28;20246;-55
2023/02/03 07:00:16;;;;;;;14.90;3.23;;;7.90;99.90;;;;;;5005416;27;20672;-51
2023/02/03 07:02:42;;;;;;;5.67;2.90;;;7.90;99.90;;;;;;5004885;28;20576;-54
2023/02/03 07:05:10;;;;;;;12.00;2.90;;;7.90;99.90;;;;;;5012392;28;20781;-48
2023/02/03 07:07:38;;;;;;;12.17;3.33;;;8.00;99.90;;;;;;5005396;27;20215;-51
2023/02/03 07:10:06;;;;;;;9.80;2.90;;;8.00;99.90;;;;;;5010082;28;20200;-51
2023/02/03 07:12:33;;;;;;;13.90;2.90;;;8.10;99.90;;;;;;5001473;27;20212;-54
2023/02/03 07:14:59;;;;;;;10.67;2.63;;;8.10;99.90;;;;;;5010578;28;20718;-50
2023/02/03 07:17:27;;;;;;;12.03;2.60;;;8.10;99.90;;;;;;5000744;28;20200;-53
2023/02/03 07:19:54;;;;;;;10.30;2.73;;;8.10;99.90;;;;;;4999776;28;20212;-52
2023/02/03 07:22:20;;;;;;;8.27;2.67;;;8.20;99.90;;;;;;5007674;28;20212;-57
2023/02/03 07:24:48;;;;;;;11.13;2.50;;;8.20;99.90;;;;;;5008113;28;20231;-55
2023/02/03 07:27:16;;;;;;;9.77;2.97;;;8.20;99.90;;;;;;4999444;28;20216;-56
2023/02/03 07:29:43;;;;;;;7.27;2.50;;;8.10;99.90;;;;;;5016752;28;20198;-53
2023/02/03 07:32:10;;;;;;;13.47;2.80;;;8.20;99.90;;;;;;4998782;28;20206;-49
2023/02/03 07:34:37;;;;;;;9.43;3.00;;;8.10;99.90;;;;;;4997408;28;20224;-57
2023/02/03 07:37:03;;;;;;;11.90;3.63;;;8.20;99.90;;;;;;5015174;28;20211;-52
2023/02/03 07:39:30;;;;;;;7.87;2.33;;;8.20;99.90;;;;;;5005894;28;20199;-54
2023/02/03 07:41:58;;;;;;;8.80;2.70;;;8.20;99.90;;;;;;5008666;28;20216;-51
2023/02/03 07:44:27;;;;;;;11.60;2.50;;;8.20;99.90;;;;;;5008757;28;20204;-56
2023/02/03 07:46:54;;;;;;;16.27;3.00;;;8.20;99.90;;;;;;5008214;28;20257;-56
2023/02/03 07:49:21;;;;;;;8.10;2.43;;;8.30;99.90;;;;;;4999836;28;20192;-56
2023/02/03 07:51:47;;;;;;;9.17;2.20;;;8.30;99.90;;;;;;5008511;28;20215;-56
2023/02/03 07:54:15;;;;;;;6.20;1.43;;;8.20;99.90;;;;;;5003459;28;20290;-54
2023/02/03 07:56:42;;;;;;;12.27;2.23;;;8.30;99.90;;;;;;5018256;28;20204;-58
2023/02/03 07:59:10;;;;;;;8.20;2.23;;;8.30;99.90;;;;;;5005543;28;20219;-49
2023/02/03 08:01:37;;;;;;;11.40;2.77;;;8.30;99.90;;;;;;5021990;28;20215;-57
2023/02/03 08:04:04;;;;;;;12.53;2.30;;;8.30;99.90;;;;;;5005047;28;20691;-52
2023/02/03 08:06:31;;;;;;;4.50;1.63;;;8.10;99.90;;;;;;5013713;28;20196;-57
2023/02/03 08:08:59;;;;;;;7.30;1.70;;;7.80;99.90;;;;;;5018545;28;20680;-52
2023/02/03 08:11:26;;;;;;;7.97;1.30;;;7.60;99.90;;;;;;5011907;28;20204;-58
2023/02/03 08:13:53;;;;;;;3.40;1.40;;;7.30;99.90;;;;;;5009450;27;20714;-51
2023/02/03 08:16:42;;;;;;;7.93;1.50;;;7.20;99.90;;;;;;5010138;28;20263;-56
2023/02/03 08:19:10;;;;;;;12.50;2.67;;;7.30;99.90;;;;;;5011282;27;20192;-57
2023/02/03 08:21:37;;;;;;;8.57;2.10;;;7.40;99.90;;;;;;5011073;28;20208;-54
2023/02/03 08:24:04;;;;;;;10.57;3.10;;;7.50;99.90;;;;;;5008518;27;20216;-48
2023/02/03 08:26:31;;;;;;;16.03;3.33;;;7.70;99.90;;;;;;5012380;28;20857;-57
2023/02/03 08:28:58;;;;;;;14.30;2.87;;;7.80;99.90;;;;;;5012938;27;20204;-50
2023/02/03 08:31:24;;;;;;;15.90;3.00;;;7.90;99.90;;;;;;5018173;27;20207;-54
2023/02/03 08:33:52;;;;;;;15.47;2.97;;;7.90;99.90;;;;;;5010166;28;20254;-48
2023/02/03 08:36:19;;;;;;;10.43;2.90;;;8.00;99.90;;;;;;5002348;28;20231;-56
2023/02/03 08:38:46;;;;;;;18.93;3.60;;;8.00;99.90;;;;;;5008999;27;20215;-51
2023/02/03 08:41:16;;;;;;;20.37;4.13;;;8.00;99.90;;;;;;5005562;28;20204;-55
2023/02/03 08:43:43;;;;;;;13.73;3.10;;;8.00;99.90;;;;;;5013689;28;20207;-54
2023/02/03 08:46:12;;;;;;;19.57;3.87;;;8.10;99.90;;;;;;5006217;27;20220;-55
2023/02/03 08:48:39;;;;;;;17.77;4.20;;;8.00;99.90;;;;;;5011666;28;20197;-56
2023/02/03 08:51:12;;;;;;;28.53;5.53;;;8.10;99.90;;;;;;5007591;28;20222;-54
2023/02/03 08:53:39;;;;;;;28.57;5.37;;;8.10;99.90;;;;;;5014099;28;20204;-57
2023/02/03 08:56:06;;;;;;;23.10;5.50;;;8.00;99.90;;;;;;5012784;28;20221;-53
2023/02/03 08:58:33;;;;;;;16.63;3.73;;;8.00;99.90;;;;;;5010503;28;20670;-54
2023/02/03 09:01:07;;;;;;;21.50;3.83;;;8.00;99.90;;;;;;5007185;27;20667;-51
2023/02/03 09:03:34;;;;;;;23.30;4.00;;;8.00;99.90;;;;;;5013219;28;20199;-52
2023/02/03 09:06:01;;;;;;;17.63;4.50;;;8.00;99.90;;;;;;5012994;27;20223;-51
2023/02/03 09:08:29;;;;;;;19.17;5.43;;;8.00;99.90;;;;;;5014523;28;20208;-56
2023/02/03 09:10:56;;;;;;;20.83;4.40;;;7.90;99.90;;;;;;5011756;28;20216;-51
2023/02/03 09:13:22;;;;;;;21.80;4.73;;;7.90;99.90;;;;;;5010409;28;20860;-57
2023/02/03 09:15:49;;;;;;;29.00;5.37;;;7.90;99.90;;;;;;5016887;27;20602;-49
2023/02/03 09:18:16;;;;;;;25.53;5.23;;;7.90;99.90;;;;;;5020478;27;20230;-55
2023/02/03 09:20:43;;;;;;;29.07;4.87;;;7.90;99.90;;;;;;5011207;28;20232;-52
2023/02/03 09:23:09;;;;;;;28.90;6.67;;;7.90;99.90;;;;;;5003887;28;20208;-56
2023/02/03 09:25:38;;;;;;;25.27;5.77;;;7.90;99.90;;;;;;5011806;28;20212;-57
2023/02/03 09:28:04;;;;;;;22.27;6.10;;;7.90;99.90;;;;;;5007089;28;20196;-50
2023/02/03 09:30:31;;;;;;;28.10;5.30;;;7.90;99.90;;;;;;5005751;28;20211;-54
2023/02/03 09:32:58;;;;;;;23.77;5.00;;;7.90;99.90;;;;;;5005733;27;20263;-56
2023/02/03 09:35:26;;;;;;;24.30;4.70;;;7.90;99.90;;;;;;5023658;27;20221;-57
2023/02/03 09:37:54;;;;;;;20.50;5.60;;;8.00;99.90;;;;;;5022743;27;20322;-54
2023/02/03 09:40:26;;;;;;;29.87;5.77;;;8.00;99.90;;;;;;5012514;28;20253;-57
2023/02/03 09:43:10;;;;;;;22.87;5.00;;;8.00;99.90;;;;;;5001502;27;20216;-56
2023/02/03 09:45:37;;;;;;;27.83;6.63;;;8.00;99.90;;;;;;5003148;28;20224;-56
2023/02/03 09:48:09;;;;;;;26.67;6.50;;;8.10;99.90;;;;;;5014819;27;20207;-56
2023/02/03 09:50:38;;;;;;;29.13;5.37;;;8.10;99.90;;;;;;5005561;28;20227;-56
2023/02/03 09:53:14;;;;;;;26.53;5.73;;;8.10;99.90;;;;;;5019127;28;20241;-57
2023/02/03 09:55:44;;;;;;;32.70;6.43;;;8.10;99.90;;;;;;5003542;28;20251;-57
2023/02/03 09:58:14;;;;;;;22.23;5.30;;;8.10;99.90;;;;;;5008487;27;20208;-52
2023/02/03 10:00:44;;;;;;;25.77;5.23;;;8.10;99.90;;;;;;5009022;28;20196;-57
2023/02/03 10:03:20;;;;;;;28.90;5.37;;;8.10;99.90;;;;;;5011008;28;20696;-51
2023/02/03 10:06:07;;;;;;;25.03;5.87;;;8.10;99.90;;;;;;5017175;28;20224;-57
2023/02/03 10:08:56;;;;;;;33.17;7.73;;;8.20;99.90;;;;;;5008864;28;20298;-57
2023/02/03 10:11:56;;;;;;;26.93;5.80;;;8.20;99.90;;;;;;5018342;28;20242;-54
2023/02/03 10:14:40;;;;;;;36.27;7.23;;;8.20;99.90;;;;;;5009190;27;20307;-51
2023/02/03 10:17:21;;;;;;;30.83;6.27;;;8.20;99.90;;;;;;5006913;28;20216;-50
2023/02/03 10:19:51;;;;;;;42.23;7.47;;;8.30;99.90;;;;;;5008794;27;20211;-56
2023/02/03 10:22:23;;;;;;;33.57;6.77;;;8.30;99.90;;;;;;5012870;28;20204;-49
2023/02/03 10:24:54;;;;;;;41.87;6.73;;;8.20;99.90;;;;;;5008830;28;20221;-55
2023/02/03 10:27:24;;;;;;;35.73;6.63;;;8.20;99.90;;;;;;5016074;28;20201;-52
2023/02/03 10:29:57;;;;;;;44.47;8.13;;;8.20;99.90;;;;;;5011832;28;20244;-54
2023/02/03 10:32:26;;;;;;;35.77;6.70;;;8.20;99.90;;;;;;5009401;28;20242;-51
2023/02/03 10:34:53;;;;;;;37.27;7.27;;;8.30;99.90;;;;;;5003168;27;20212;-52
2023/02/03 10:37:27;;;;;;;35.20;6.30;;;8.30;99.90;;;;;;5014370;28;20580;-51
2023/02/03 10:39:55;;;;;;;36.07;6.40;;;8.30;99.90;;;;;;4996991;28;20208;-55
2023/02/03 10:45:36;;;;;;;27.30;6.07;;;8.20;99.90;;;;;;5027836;27;20264;-56
2023/02/03 10:48:06;;;;;;;34.03;6.40;;;8.20;99.90;;;;;;5007434;28;20580;-52
2023/02/03 10:50:52;;;;;;;28.57;5.70;;;8.20;99.90;;;;;;5005824;27;20218;-56
2023/02/03 10:53:24;;;;;;;37.53;7.50;;;8.20;99.90;;;;;;5013122;28;20211;-51
2023/02/03 10:56:01;;;;;;;23.10;5.23;;;8.20;99.90;;;;;;5010062;28;20239;-57
2023/02/03 10:58:30;;;;;;;28.20;6.40;;;8.20;99.90;;;;;;5010378;28;20192;-54
2023/02/03 11:01:05;;;;;;;26.30;6.03;;;8.20;99.90;;;;;;5010687;28;20218;-57
2023/02/03 11:03:32;;;;;;;24.20;5.97;;;8.30;99.90;;;;;;5002286;28;20187;-56
2023/02/03 11:06:10;;;;;;;40.10;7.50;;;8.30;99.90;;;;;;5042265;27;20215;-57
2023/02/03 11:08:39;;;;;;;33.23;6.60;;;8.30;99.90;;;;;;5011336;28;20703;-55
2023/02/03 11:11:30;;;;;;;29.87;6.37;;;8.30;99.90;;;;;;5003244;28;20298;-50
2023/02/03 11:14:12;;;;;;;31.07;6.30;;;8.30;99.90;;;;;;5017279;28;20683;-54
2023/02/03 11:16:41;;;;;;;41.23;7.83;;;8.30;99.90;;;;;;5012777;28;20219;-56
2023/02/03 11:19:16;;;;;;;35.93;6.57;;;8.30;99.90;;;;;;5007957;28;20196;-50
2023/02/03 11:21:46;;;;;;;31.93;6.70;;;8.40;99.90;;;;;;5000663;27;20192;-54
2023/02/03 11:24:18;;;;;;;26.73;5.20;;;8.40;99.90;;;;;;5011284;28;20266;-52
2023/02/03 11:26:49;;;;;;;29.80;5.70;;;8.40;99.90;;;;;;5002755;28;21333;-54
2023/02/03 11:29:36;;;;;;;29.70;6.17;;;8.40;99.90;;;;;;5017513;28;20312;-55
2023/02/03 11:32:15;;;;;;;32.33;6.93;;;8.50;99.90;;;;;;5012365;28;20218;-55
2023/02/03 11:34:49;;;;;;;36.27;7.20;;;8.50;99.90;;;;;;5003643;28;20721;-56
2023/02/03 11:37:28;;;;;;;33.97;6.03;;;8.50;99.90;;;;;;5005846;28;20226;-53
2023/02/03 11:40:21;;;;;;;25.70;5.37;;;8.50;99.90;;;;;;5012313;28;20207;-55
2023/02/03 11:43:00;;;;;;;33.93;6.10;;;8.50;99.90;;;;;;5002355;28;20281;-53
2023/02/03 11:45:29;;;;;;;30.33;6.40;;;8.50;99.90;;;;;;4998580;28;20232;-53
2023/02/03 11:48:01;;;;;;;33.47;8.50;;;8.50;99.90;;;;;;5004135;28;20212;-53
2023/02/03 11:50:33;;;;;;;30.63;6.53;;;8.50;99.90;;;;;;4996757;28;20735;-55
2023/02/03 11:53:46;;;;;;;30.43;5.73;;;8.50;99.90;;;;;;5004895;28;20215;-52
2023/02/03 11:56:26;;;;;;;21.47;6.03;;;8.50;99.90;;;;;;4999677;28;20594;-52
2023/02/03 11:59:14;;;;;;;37.87;5.87;;;8.50;99.90;;;;;;4997175;28;20214;-50
2023/02/03 12:01:54;;;;;;;28.23;5.80;;;8.50;99.90;;;;;;5012227;28;20218;-49
2023/02/03 12:04:41;;;;;;;26.30;5.73;;;8.50;99.90;;;;;;5015230;28;20242;-55
2023/02/03 12:07:31;;;;;;;30.13;6.20;;;8.50;99.90;;;;;;4986800;28;21017;-53
2023/02/03 12:10:04;;;;;;;29.83;5.97;;;8.50;99.90;;;;;;5011051;28;20245;-49
2023/02/03 12:12:50;;;;;;;29.50;5.23;;;8.50;99.90;;;;;;5018286;28;20208;-54
2023/02/03 12:15:48;;;;;;;27.57;5.13;;;8.50;99.90;;;;;;4989805;28;20234;-50
2023/02/03 12:18:27;;;;;;;19.43;4.53;;;8.60;99.90;;;;;;4995248;28;20313;-51
2023/02/03 12:21:07;;;;;;;28.33;5.50;;;8.60;99.90;;;;;;5014859;28;20204;-52
2023/02/03 12:23:45;;;;;;;25.07;5.40;;;8.70;99.90;;;;;;5010907;28;20199;-56
2023/02/03 12:26:22;;;;;;;23.50;4.70;;;8.70;99.90;;;;;;5017197;28;20317;-53
2023/02/03 12:28:57;;;;;;;25.33;5.93;;;8.70;99.90;;;;;;5021797;28;20206;-54
2023/02/03 12:31:33;;;;;;;19.50;4.33;;;8.70;99.90;;;;;;5009311;28;20219;-57
2023/02/03 12:34:13;;;;;;;24.87;4.53;;;8.70;99.90;;;;;;5009101;28;20291;-58
2023/02/03 12:36:47;;;;;;;27.03;4.97;;;8.60;99.90;;;;;;5001668;28;20754;-47
2023/02/03 12:39:20;;;;;;;29.67;5.80;;;8.60;99.90;;;;;;5007341;28;20212;-59
2023/02/03 12:41:53;;;;;;;30.90;5.83;;;8.60;99.90;;;;;;5010347;28;20211;-54
2023/02/03 12:44:26;;;;;;;27.00;5.03;;;8.50;99.90;;;;;;5010897;28;20216;-56
2023/02/03 12:47:00;;;;;;;14.30;4.30;;;8.50;99.90;;;;;;5001951;28;20200;-55
2023/02/03 12:49:35;;;;;;;24.50;5.87;;;8.50;99.90;;;;;;5008648;28;20295;-52
2023/02/03 12:52:11;;;;;;;23.40;5.37;;;8.50;99.90;;;;;;5008940;27;20204;-55
2023/02/03 12:54:45;;;;;;;15.17;5.07;;;8.50;99.90;;;;;;5009987;27;20691;-49
2023/02/03 12:57:37;;;;;;;23.47;5.50;;;8.40;99.90;;;;;;5015495;28;20223;-51
2023/02/03 13:00:15;;;;;;;18.87;5.00;;;8.40;99.90;;;;;;5011634;28;20195;-55
2023/02/03 13:02:52;;;;;;;18.60;4.13;;;8.40;99.90;;;;;;5001626;28;20597;-50
2023/02/03 13:05:24;;;;;;;24.03;5.23;;;8.40;99.90;;;;;;5017352;28;20220;-52
2023/02/03 13:08:00;;;;;;;22.37;5.10;;;8.40;99.90;;;;;;5007214;28;20202;-52
2023/02/03 13:10:32;;;;;;;19.63;4.40;;;8.40;99.90;;;;;;5009404;27;20281;-49
2023/02/03 13:13:00;;;;;;;23.97;4.33;;;8.30;99.90;;;;;;5024896;27;20196;-54
2023/02/03 13:15:30;;;;;;;14.27;3.67;;;8.30;99.90;;;;;;5020136;28;20227;-52
2023/02/03 13:18:02;;;;;;;11.13;3.13;;;8.30;99.90;;;;;;5011158;27;20502;-56
2023/02/03 13:20:34;;;;;;;17.73;5.07;;;8.30;99.90;;;;;;5011634;28;20220;-48